Hyannis, MA

1:13 PM EST on November 24, 2014 (GMT -0500)
Chatham Municipal | Change Station
CLOSE
Current Station
Airport
Location: Chatham,
Elevation: 66 ft
Nearby Weather Stations
Active Advisory: Wind Advisory Active Notice: Public Information Statement

Elev 66 ft 41.69 °N, 69.99 °W | Updated 21 minutes ago

Rain
Rain
58 °F
Feels Like 58 °F
N
16
Wind Variable Wind from South
Gusts 30 mph

Today
High -- | Low -- °F
--% Chance of Precip.
Yesterday
High -- | Low -- °F
Precip. -- in
6:40 AM 4:14 PM
Waxing Crescent, 6% visible
Pressure 29.75 in
Visibility 3.0 miles
Clouds Overcast 300 ft
Dew Point 58 °F
Humidity 100%
Rainfall 0.35 in
Snow Depth Not available.
UV 1 out of 12
Pollen .10 out of 12
Air Quality Not available.
Flu Activity Not available.
METAR KCQX 241752Z AUTO 19014G26KT 3SM BR OVC003 14/14 A2974 RMK AO2 PK WND 16028/1653 RAE49 SLP073 P0001 60035 T01440144 10144 20122 56035

More Conditions Fewer Conditions

Pressure 29.75 in
Visibility 3.0 miles
Clouds Overcast 300 ft
Dew Point 58 °F
Humidity 100%
Rainfall 0.35 in
Snow Depth Not available.
UV 1 out of 12
Pollen .10 out of 12
Air Quality Not available.
Flu Activity Not available.
METAR KCQX 241752Z AUTO 19014G26KT 3SM BR OVC003 14/14 A2974 RMK AO2 PK WND 16028/1653 RAE49 SLP073 P0001 60035 T01440144 10144 20122 56035

More Conditions Fewer Conditions

10-Day Weather Forecast

Almanac

Astronomy

Nov. 24, 2014 Rise Set
Actual Time
Civil Twilight
Nautical Twilight
Astronomical Twilight
Moon
Length of Visible Light
Length of Day
Tomorrow will be .
, % of the Moon is Illuminated

Today's Extremes

State Highs State Lows

Community

WunderPhotos

Upload Photos

1,773,385 photos uploaded!

WunderBlogs® & News

Nearby

Air Quality

  Air Quality AQ Index Pollutant
Not available.

Snow Depth

Station Depth Elevation

Earthquake Activity

City Distance Mag. Time & Date
Minimum magnitude displayed is 2.5.

Coastal Water Temperatures

Place Temperature

Nearby Weather Stations